Time;durP1;ratioP1;P1;durP2;ratioP2;P2;SDS_P1;SDS_P2;PMS_P1;PMS_P2;Temp;Humidity;BMP_temperature;BMP_pressure;BME280_temperature;BME280_humidity;BME280_pressure;Samples;Min_cycle;Max_cycle;Signal;HPM_P1;HPM_P2
2021/07/25 00:12:24;;;;;;;18.00;12.37;;;;;;;19.66;62.60;100279.65;20946895;82;99714;-82
2021/07/25 00:42:25;;;;;;;20.83;13.33;;;;;;;19.42;64.47;100238.47;21005850;82;99605;-81
2021/07/25 01:12:56;;;;;;;17.02;11.97;;;;;;;19.31;65.63;100198.31;20968570;82;99866;-81
2021/07/25 01:42:57;;;;;;;20.85;13.08;;;;;;;19.21;65.35;100180.42;20913523;83;99883;-81
2021/07/25 02:12:58;;;;;;;21.02;13.43;;;;;;;19.05;67.16;100153.38;20890060;82;99797;-82
2021/07/25 02:42:59;;;;;;;19.07;13.27;;;;;;;19.13;68.68;100147.75;20916734;83;100038;-82
2021/07/25 03:13:00;;;;;;;27.42;14.80;;;;;;;18.92;68.16;100162.91;20833976;83;100228;-83
2021/07/25 03:43:02;;;;;;;22.17;14.43;;;;;;;18.91;69.72;100143.22;20475199;82;100402;-83
2021/07/25 04:13:02;;;;;;;22.83;14.77;;;;;;;18.88;70.16;100151.05;20577729;82;100301;-82
2021/07/25 04:43:04;;;;;;;22.13;15.00;;;;;;;18.79;71.56;100154.47;20917851;83;100072;-82
2021/07/25 05:13:11;;;;;;;22.52;15.13;;;;;;;19.15;71.63;100140.34;20911051;83;99953;-80
2021/07/25 05:43:13;;;;;;;22.30;15.38;;;;;;;19.87;70.65;100136.59;20772025;83;99852;-79
2021/07/25 06:13:14;;;;;;;20.90;14.43;;;;;;;21.33;68.69;100144.59;20707842;82;100096;-80
2021/07/25 06:43:15;;;;;;;19.62;13.90;;;;;;;23.36;63.33;100123.53;20754633;83;100080;-81
2021/07/25 07:13:18;;;;;;;20.00;12.78;;;;;;;24.25;60.97;100123.10;20751289;83;100389;-81
2021/07/25 07:43:22;;;;;;;16.62;11.68;;;;;;;26.36;55.42;100120.30;20850986;83;100124;-81
2021/07/25 08:13:22;;;;;;;15.37;11.63;;;;;;;27.25;53.39;100119.53;20835288;83;100045;-83
2021/07/25 08:43:27;;;;;;;14.68;11.85;;;;;;;27.30;52.21;100116.65;20917730;83;99975;-81
2021/07/25 09:13:28;;;;;;;18.35;12.45;;;;;;;27.91;52.05;100113.75;20923245;83;99653;-84
2021/07/25 09:43:29;;;;;;;16.17;11.00;;;;;;;28.71;51.18;100103.33;20794215;83;99960;-85
2021/07/25 10:13:30;;;;;;;13.98;10.38;;;;;;;29.94;46.22;100095.31;20811619;81;99688;-83
2021/07/25 10:43:31;;;;;;;15.50;11.20;;;;;;;31.28;44.06;100092.31;20945804;83;100139;-84
2021/07/25 11:13:41;;;;;;;16.27;12.18;;;;;;;32.07;41.59;100091.92;20920337;83;100186;-83
2021/07/25 11:44:05;;;;;;;17.95;12.95;;;;;;;31.68;41.27;100102.87;20831666;82;100136;-84
2021/07/25 12:14:06;;;;;;;16.42;12.68;;;;;;;30.89;41.20;100118.74;20836137;83;100284;-82
2021/07/25 12:44:06;;;;;;;23.10;14.63;;;;;;;30.54;42.21;100136.41;20830219;82;100119;-83
2021/07/25 13:14:11;;;;;;;14.87;9.65;;;;;;;29.80;43.92;100131.17;20806088;82;100413;-83
2021/07/25 13:44:11;;;;;;;15.10;9.78;;;;;;;29.03;44.61;100149.44;20765530;83;99827;-85
2021/07/25 14:14:18;;;;;;;14.53;9.38;;;;;;;28.63;45.25;100139.06;20785135;83;99870;-84
2021/07/25 14:44:15;;;;;;;17.82;9.75;;;;;;;28.90;45.06;100144.08;20927570;83;99617;-84
2021/07/25 15:14:16;;;;;;;15.85;10.13;;;;;;;29.16;44.99;100134.14;20905876;83;99672;-84
2021/07/25 15:44:17;;;;;;;15.15;9.08;;;;;;;29.07;45.52;100109.52;20738616;83;99875;-83
2021/07/25 16:14:18;;;;;;;14.03;8.45;;;;;;;29.22;44.24;100100.16;20753569;83;99853;-81
2021/07/25 16:44:18;;;;;;;10.82;7.28;;;;;;;28.42;44.44;100090.94;20946602;83;100067;-84
2021/07/25 17:14:19;;;;;;;12.07;7.08;;;;;;;27.79;43.46;100086.00;20937919;83;100176;-80
2021/07/25 17:44:20;;;;;;;12.40;8.15;;;;;;;27.34;44.80;100111.53;20749270;83;99981;-82
2021/07/25 18:14:21;;;;;;;14.03;8.90;;;;;;;26.66;45.86;100104.21;20723788;81;99947;-83
2021/07/25 18:44:22;;;;;;;16.02;10.23;;;;;;;25.78;46.96;100111.31;20896154;83;99747;-83
2021/07/25 19:14:29;;;;;;;14.53;9.88;;;;;;;25.03;49.71;100103.17;20906552;83;99901;-83
2021/07/25 19:44:28;;;;;;;13.48;10.08;;;;;;;24.29;51.01;100104.78;20908455;82;99896;-83
2021/07/25 20:14:30;;;;;;;15.93;10.72;;;;;;;23.97;51.88;100131.52;20860223;81;100954;-92
2021/07/25 20:44:32;;;;;;;15.67;10.97;;;;;;;23.62;53.13;100136.77;20867825;81;99879;-87
2021/07/25 21:14:33;;;;;;;16.50;12.25;;;;;;;22.98;55.72;100128.23;20885221;82;99570;-88
2021/07/25 21:44:34;;;;;;;20.68;13.25;;;;;;;22.42;58.44;100119.44;20779254;82;100168;-88
2021/07/25 22:14:34;;;;;;;21.03;14.07;;;;;;;22.20;58.82;100064.09;20727971;83;99884;-93
2021/07/25 22:44:36;;;;;;;17.52;13.03;;;;;;;21.99;60.49;100083.80;21037359;82;99554;-93
2021/07/25 23:14:37;;;;;;;19.05;14.73;;;;;;;21.71;61.19;100089.94;21006146;82;100003;-92
2021/07/25 23:44:39;;;;;;;24.12;16.67;;;;;;;21.29;63.29;100062.15;20851917;82;99833;-92
